sensor_id;sensor_type;location;lat;lon;timestamp;P1;durP1;ratioP1;P2;durP2;ratioP2
65996;SDS011;52765;52.258;21.052;2022-09-21T00:01:59;9.70;;;6.28;;
65996;SDS011;52765;52.258;21.052;2022-09-21T00:04:25;12.35;;;6.93;;
65996;SDS011;52765;52.258;21.052;2022-09-21T00:06:51;12.70;;;7.43;;
65996;SDS011;52765;52.258;21.052;2022-09-21T00:09:17;13.20;;;7.40;;
65996;SDS011;52765;52.258;21.052;2022-09-21T00:11:43;13.15;;;7.28;;
65996;SDS011;52765;52.258;21.052;2022-09-21T00:14:10;15.02;;;8.05;;
65996;SDS011;52765;52.258;21.052;2022-09-21T00:16:37;12.32;;;7.93;;
65996;SDS011;52765;52.258;21.052;2022-09-21T00:19:04;15.88;;;8.80;;
65996;SDS011;52765;52.258;21.052;2022-09-21T00:21:30;17.27;;;10.38;;
65996;SDS011;52765;52.258;21.052;2022-09-21T00:23:57;12.43;;;8.15;;
65996;SDS011;52765;52.258;21.052;2022-09-21T00:26:24;13.82;;;8.43;;
65996;SDS011;52765;52.258;21.052;2022-09-21T00:28:52;13.25;;;7.75;;
65996;SDS011;52765;52.258;21.052;2022-09-21T00:31:19;14.35;;;7.40;;
65996;SDS011;52765;52.258;21.052;2022-09-21T00:33:44;12.63;;;7.57;;
65996;SDS011;52765;52.258;21.052;2022-09-21T00:36:11;14.75;;;8.63;;
65996;SDS011;52765;52.258;21.052;2022-09-21T00:38:38;14.57;;;8.50;;
65996;SDS011;52765;52.258;21.052;2022-09-21T00:41:05;15.88;;;8.25;;
65996;SDS011;52765;52.258;21.052;2022-09-21T00:43:36;13.73;;;9.05;;
65996;SDS011;52765;52.258;21.052;2022-09-21T00:46:05;14.23;;;9.02;;
65996;SDS011;52765;52.258;21.052;2022-09-21T00:48:38;17.90;;;9.23;;
65996;SDS011;52765;52.258;21.052;2022-09-21T00:51:05;23.63;;;12.70;;
65996;SDS011;52765;52.258;21.052;2022-09-21T00:53:32;24.58;;;13.45;;
65996;SDS011;52765;52.258;21.052;2022-09-21T00:55:59;26.70;;;15.90;;
65996;SDS011;52765;52.258;21.052;2022-09-21T00:58:30;28.90;;;15.15;;
65996;SDS011;52765;52.258;21.052;2022-09-21T01:01:04;32.50;;;17.55;;
65996;SDS011;52765;52.258;21.052;2022-09-21T01:03:30;34.40;;;17.83;;
65996;SDS011;52765;52.258;21.052;2022-09-21T01:05:56;33.13;;;18.73;;
65996;SDS011;52765;52.258;21.052;2022-09-21T01:08:22;37.85;;;19.27;;
65996;SDS011;52765;52.258;21.052;2022-09-21T01:13:44;30.65;;;17.73;;
65996;SDS011;52765;52.258;21.052;2022-09-21T01:16:18;26.80;;;16.90;;
65996;SDS011;52765;52.258;21.052;2022-09-21T01:21:23;29.55;;;16.13;;
65996;SDS011;52765;52.258;21.052;2022-09-21T01:29:48;29.95;;;15.38;;
65996;SDS011;52765;52.258;21.052;2022-09-21T01:32:53;28.13;;;16.10;;
65996;SDS011;52765;52.258;21.052;2022-09-21T01:35:22;25.63;;;15.02;;
65996;SDS011;52765;52.258;21.052;2022-09-21T01:37:54;25.63;;;15.70;;
65996;SDS011;52765;52.258;21.052;2022-09-21T01:40:41;30.35;;;16.55;;
65996;SDS011;52765;52.258;21.052;2022-09-21T01:43:12;31.42;;;17.42;;
65996;SDS011;52765;52.258;21.052;2022-09-21T01:45:44;25.90;;;16.08;;
65996;SDS011;52765;52.258;21.052;2022-09-21T01:48:13;29.70;;;16.60;;
65996;SDS011;52765;52.258;21.052;2022-09-21T01:50:42;33.50;;;17.33;;
65996;SDS011;52765;52.258;21.052;2022-09-21T01:56:40;30.63;;;16.58;;
65996;SDS011;52765;52.258;21.052;2022-09-21T02:01:19;28.83;;;15.23;;
65996;SDS011;52765;52.258;21.052;2022-09-21T02:03:56;26.15;;;15.32;;
65996;SDS011;52765;52.258;21.052;2022-09-21T02:06:26;24.60;;;15.25;;
65996;SDS011;52765;52.258;21.052;2022-09-21T02:08:54;28.92;;;15.10;;
65996;SDS011;52765;52.258;21.052;2022-09-21T02:11:20;26.05;;;15.15;;
65996;SDS011;52765;52.258;21.052;2022-09-21T02:13:47;27.67;;;13.57;;
65996;SDS011;52765;52.258;21.052;2022-09-21T02:19:13;23.10;;;13.77;;
65996;SDS011;52765;52.258;21.052;2022-09-21T02:27:05;22.02;;;14.40;;
65996;SDS011;52765;52.258;21.052;2022-09-21T02:29:53;26.42;;;15.70;;
65996;SDS011;52765;52.258;21.052;2022-09-21T02:37:58;23.30;;;13.60;;
65996;SDS011;52765;52.258;21.052;2022-09-21T02:46:13;16.92;;;11.25;;
65996;SDS011;52765;52.258;21.052;2022-09-21T02:48:48;18.50;;;11.38;;
65996;SDS011;52765;52.258;21.052;2022-09-21T02:51:18;17.55;;;11.00;;
65996;SDS011;52765;52.258;21.052;2022-09-21T02:53:57;20.35;;;11.80;;
65996;SDS011;52765;52.258;21.052;2022-09-21T02:56:26;19.40;;;10.25;;
65996;SDS011;52765;52.258;21.052;2022-09-21T02:58:55;19.02;;;11.48;;
65996;SDS011;52765;52.258;21.052;2022-09-21T03:01:25;19.83;;;10.82;;
65996;SDS011;52765;52.258;21.052;2022-09-21T03:03:52;27.42;;;11.88;;
65996;SDS011;52765;52.258;21.052;2022-09-21T03:06:18;23.27;;;11.60;;
65996;SDS011;52765;52.258;21.052;2022-09-21T03:08:43;22.27;;;12.10;;
65996;SDS011;52765;52.258;21.052;2022-09-21T03:11:09;22.55;;;12.20;;
65996;SDS011;52765;52.258;21.052;2022-09-21T03:13:35;19.40;;;10.70;;
65996;SDS011;52765;52.258;21.052;2022-09-21T03:16:02;27.02;;;13.73;;
65996;SDS011;52765;52.258;21.052;2022-09-21T03:18:30;25.13;;;13.55;;
65996;SDS011;52765;52.258;21.052;2022-09-21T03:20:56;25.80;;;13.80;;
65996;SDS011;52765;52.258;21.052;2022-09-21T03:23:22;23.65;;;13.73;;
65996;SDS011;52765;52.258;21.052;2022-09-21T03:25:48;22.83;;;12.70;;
65996;SDS011;52765;52.258;21.052;2022-09-21T03:28:13;28.92;;;13.85;;
65996;SDS011;52765;52.258;21.052;2022-09-21T03:30:40;29.60;;;14.30;;
65996;SDS011;52765;52.258;21.052;2022-09-21T03:33:06;25.00;;;13.65;;
65996;SDS011;52765;52.258;21.052;2022-09-21T03:35:32;26.67;;;13.98;;
65996;SDS011;52765;52.258;21.052;2022-09-21T03:37:58;30.73;;;13.80;;
65996;SDS011;52765;52.258;21.052;2022-09-21T03:40:24;28.23;;;15.32;;
65996;SDS011;52765;52.258;21.052;2022-09-21T03:42:52;30.52;;;14.77;;
65996;SDS011;52765;52.258;21.052;2022-09-21T03:45:18;25.92;;;14.63;;
65996;SDS011;52765;52.258;21.052;2022-09-21T03:47:46;31.77;;;15.80;;
65996;SDS011;52765;52.258;21.052;2022-09-21T03:50:11;29.77;;;15.70;;
65996;SDS011;52765;52.258;21.052;2022-09-21T03:52:37;32.25;;;16.45;;
65996;SDS011;52765;52.258;21.052;2022-09-21T03:55:03;34.50;;;17.48;;
65996;SDS011;52765;52.258;21.052;2022-09-21T03:57:31;34.20;;;16.40;;
65996;SDS011;52765;52.258;21.052;2022-09-21T03:59:57;32.60;;;15.60;;
65996;SDS011;52765;52.258;21.052;2022-09-21T04:02:22;31.17;;;15.02;;
65996;SDS011;52765;52.258;21.052;2022-09-21T04:04:47;32.72;;;14.15;;
65996;SDS011;52765;52.258;21.052;2022-09-21T04:07:13;25.27;;;13.60;;
65996;SDS011;52765;52.258;21.052;2022-09-21T04:09:39;25.65;;;13.48;;
65996;SDS011;52765;52.258;21.052;2022-09-21T04:12:05;22.38;;;13.10;;
65996;SDS011;52765;52.258;21.052;2022-09-21T04:14:31;24.88;;;13.95;;
65996;SDS011;52765;52.258;21.052;2022-09-21T04:16:57;24.80;;;13.68;;
65996;SDS011;52765;52.258;21.052;2022-09-21T04:19:23;27.17;;;14.35;;
65996;SDS011;52765;52.258;21.052;2022-09-21T04:21:48;31.55;;;15.15;;
65996;SDS011;52765;52.258;21.052;2022-09-21T04:24:15;24.08;;;13.25;;
65996;SDS011;52765;52.258;21.052;2022-09-21T04:26:43;26.30;;;13.60;;
65996;SDS011;52765;52.258;21.052;2022-09-21T04:29:10;27.73;;;14.90;;
65996;SDS011;52765;52.258;21.052;2022-09-21T04:31:39;22.85;;;13.65;;
65996;SDS011;52765;52.258;21.052;2022-09-21T04:34:06;19.85;;;11.55;;
65996;SDS011;52765;52.258;21.052;2022-09-21T04:36:33;22.25;;;10.77;;
65996;SDS011;52765;52.258;21.052;2022-09-21T04:39:01;23.38;;;12.15;;
65996;SDS011;52765;52.258;21.052;2022-09-21T04:41:27;18.42;;;10.60;;
65996;SDS011;52765;52.258;21.052;2022-09-21T04:43:53;18.80;;;9.40;;
65996;SDS011;52765;52.258;21.052;2022-09-21T04:46:19;14.35;;;8.23;;
65996;SDS011;52765;52.258;21.052;2022-09-21T04:48:44;14.45;;;8.70;;
65996;SDS011;52765;52.258;21.052;2022-09-21T04:51:11;16.55;;;7.72;;
65996;SDS011;52765;52.258;21.052;2022-09-21T04:53:38;12.05;;;7.68;;
65996;SDS011;52765;52.258;21.052;2022-09-21T04:56:07;13.70;;;8.00;;
65996;SDS011;52765;52.258;21.052;2022-09-21T04:58:34;11.40;;;7.43;;
65996;SDS011;52765;52.258;21.052;2022-09-21T05:01:04;13.68;;;7.75;;
65996;SDS011;52765;52.258;21.052;2022-09-21T05:03:31;13.77;;;7.88;;
65996;SDS011;52765;52.258;21.052;2022-09-21T05:05:56;13.73;;;7.90;;
65996;SDS011;52765;52.258;21.052;2022-09-21T05:08:23;13.65;;;7.63;;
65996;SDS011;52765;52.258;21.052;2022-09-21T05:11:13;17.77;;;7.80;;
65996;SDS011;52765;52.258;21.052;2022-09-21T05:13:40;12.45;;;6.82;;
65996;SDS011;52765;52.258;21.052;2022-09-21T05:16:07;11.23;;;6.25;;
65996;SDS011;52765;52.258;21.052;2022-09-21T05:18:33;11.88;;;6.85;;
65996;SDS011;52765;52.258;21.052;2022-09-21T05:20:59;12.80;;;6.55;;
65996;SDS011;52765;52.258;21.052;2022-09-21T05:23:26;15.40;;;6.72;;
65996;SDS011;52765;52.258;21.052;2022-09-21T05:25:55;9.05;;;5.93;;
65996;SDS011;52765;52.258;21.052;2022-09-21T05:28:22;11.05;;;6.07;;
65996;SDS011;52765;52.258;21.052;2022-09-21T05:30:51;10.25;;;5.75;;
65996;SDS011;52765;52.258;21.052;2022-09-21T05:38:17;11.10;;;5.80;;
65996;SDS011;52765;52.258;21.052;2022-09-21T05:40:44;9.15;;;6.25;;
65996;SDS011;52765;52.258;21.052;2022-09-21T05:43:11;10.90;;;5.88;;
65996;SDS011;52765;52.258;21.052;2022-09-21T05:45:49;9.93;;;5.80;;
65996;SDS011;52765;52.258;21.052;2022-09-21T05:48:25;12.23;;;5.65;;
65996;SDS011;52765;52.258;21.052;2022-09-21T06:00:20;11.38;;;5.88;;
65996;SDS011;52765;52.258;21.052;2022-09-21T06:05:33;7.43;;;4.68;;
65996;SDS011;52765;52.258;21.052;2022-09-21T06:07:59;9.57;;;5.43;;
65996;SDS011;52765;52.258;21.052;2022-09-21T06:10:25;10.73;;;4.45;;
65996;SDS011;52765;52.258;21.052;2022-09-21T06:12:55;6.97;;;4.40;;
65996;SDS011;52765;52.258;21.052;2022-09-21T06:15:20;10.60;;;5.10;;
65996;SDS011;52765;52.258;21.052;2022-09-21T06:17:46;8.65;;;4.35;;
65996;SDS011;52765;52.258;21.052;2022-09-21T06:20:11;9.15;;;4.22;;
65996;SDS011;52765;52.258;21.052;2022-09-21T06:22:37;9.88;;;4.15;;
65996;SDS011;52765;52.258;21.052;2022-09-21T06:25:02;7.82;;;4.25;;
65996;SDS011;52765;52.258;21.052;2022-09-21T06:27:28;7.63;;;4.35;;
65996;SDS011;52765;52.258;21.052;2022-09-21T06:29:53;17.75;;;4.95;;
65996;SDS011;52765;52.258;21.052;2022-09-21T06:32:19;6.85;;;4.60;;
65996;SDS011;52765;52.258;21.052;2022-09-21T06:34:44;8.70;;;4.57;;
65996;SDS011;52765;52.258;21.052;2022-09-21T06:37:12;7.40;;;4.53;;
65996;SDS011;52765;52.258;21.052;2022-09-21T06:39:38;11.10;;;4.25;;
65996;SDS011;52765;52.258;21.052;2022-09-21T06:42:04;6.78;;;4.28;;
65996;SDS011;52765;52.258;21.052;2022-09-21T06:44:29;8.10;;;3.97;;
65996;SDS011;52765;52.258;21.052;2022-09-21T06:46:55;5.55;;;3.85;;
65996;SDS011;52765;52.258;21.052;2022-09-21T06:49:20;8.20;;;4.57;;
65996;SDS011;52765;52.258;21.052;2022-09-21T06:51:46;7.78;;;4.70;;
65996;SDS011;52765;52.258;21.052;2022-09-21T06:54:12;7.63;;;4.43;;
65996;SDS011;52765;52.258;21.052;2022-09-21T06:56:38;8.57;;;4.70;;
65996;SDS011;52765;52.258;21.052;2022-09-21T06:59:04;11.40;;;4.78;;
65996;SDS011;52765;52.258;21.052;2022-09-21T07:01:29;7.80;;;4.57;;
65996;SDS011;52765;52.258;21.052;2022-09-21T07:03:55;8.35;;;4.28;;
65996;SDS011;52765;52.258;21.052;2022-09-21T07:06:20;10.15;;;4.45;;
65996;SDS011;52765;52.258;21.052;2022-09-21T07:08:46;8.43;;;3.80;;
65996;SDS011;52765;52.258;21.052;2022-09-21T07:11:12;6.65;;;4.43;;
65996;SDS011;52765;52.258;21.052;2022-09-21T07:13:38;8.23;;;3.95;;
65996;SDS011;52765;52.258;21.052;2022-09-21T07:16:05;8.80;;;4.30;;
65996;SDS011;52765;52.258;21.052;2022-09-21T07:18:33;10.93;;;5.60;;
65996;SDS011;52765;52.258;21.052;2022-09-21T07:21:02;16.25;;;4.97;;
65996;SDS011;52765;52.258;21.052;2022-09-21T07:23:29;10.07;;;4.28;;
65996;SDS011;52765;52.258;21.052;2022-09-21T07:25:54;5.47;;;3.55;;
65996;SDS011;52765;52.258;21.052;2022-09-21T07:28:20;4.00;;;3.30;;
65996;SDS011;52765;52.258;21.052;2022-09-21T07:30:48;2.80;;;2.35;;
65996;SDS011;52765;52.258;21.052;2022-09-21T07:33:16;5.63;;;2.70;;
65996;SDS011;52765;52.258;21.052;2022-09-21T07:35:49;3.75;;;2.10;;
65996;SDS011;52765;52.258;21.052;2022-09-21T07:38:15;4.68;;;1.95;;
65996;SDS011;52765;52.258;21.052;2022-09-21T07:40:40;2.20;;;1.40;;
65996;SDS011;52765;52.258;21.052;2022-09-21T07:43:06;2.78;;;1.30;;
65996;SDS011;52765;52.258;21.052;2022-09-21T07:45:31;1.88;;;1.40;;
65996;SDS011;52765;52.258;21.052;2022-09-21T07:48:01;3.35;;;1.40;;
65996;SDS011;52765;52.258;21.052;2022-09-21T07:50:27;6.47;;;1.42;;
65996;SDS011;52765;52.258;21.052;2022-09-21T07:52:53;2.92;;;1.80;;
65996;SDS011;52765;52.258;21.052;2022-09-21T07:55:18;5.10;;;2.35;;
65996;SDS011;52765;52.258;21.052;2022-09-21T07:57:44;3.25;;;1.85;;
65996;SDS011;52765;52.258;21.052;2022-09-21T08:00:28;3.78;;;1.90;;
65996;SDS011;52765;52.258;21.052;2022-09-21T08:02:58;2.63;;;1.70;;
65996;SDS011;52765;52.258;21.052;2022-09-21T08:05:25;3.90;;;2.08;;
65996;SDS011;52765;52.258;21.052;2022-09-21T08:07:53;3.33;;;1.90;;
65996;SDS011;52765;52.258;21.052;2022-09-21T08:10:20;2.47;;;2.00;;
65996;SDS011;52765;52.258;21.052;2022-09-21T08:12:46;4.45;;;2.00;;
65996;SDS011;52765;52.258;21.052;2022-09-21T08:15:12;2.28;;;1.48;;
65996;SDS011;52765;52.258;21.052;2022-09-21T08:17:38;4.70;;;1.50;;
65996;SDS011;52765;52.258;21.052;2022-09-21T08:20:04;2.53;;;1.60;;
65996;SDS011;52765;52.258;21.052;2022-09-21T08:22:30;1.60;;;1.50;;
65996;SDS011;52765;52.258;21.052;2022-09-21T08:24:56;3.15;;;1.40;;
65996;SDS011;52765;52.258;21.052;2022-09-21T08:27:22;2.72;;;1.40;;
65996;SDS011;52765;52.258;21.052;2022-09-21T08:29:49;2.80;;;1.52;;
65996;SDS011;52765;52.258;21.052;2022-09-21T08:32:15;1.77;;;1.27;;
65996;SDS011;52765;52.258;21.052;2022-09-21T08:34:41;2.60;;;1.60;;
65996;SDS011;52765;52.258;21.052;2022-09-21T08:37:07;3.38;;;1.60;;
65996;SDS011;52765;52.258;21.052;2022-09-21T08:39:32;2.88;;;1.42;;
65996;SDS011;52765;52.258;21.052;2022-09-21T08:44:24;2.40;;;1.73;;
65996;SDS011;52765;52.258;21.052;2022-09-21T08:47:08;4.57;;;1.45;;
65996;SDS011;52765;52.258;21.052;2022-09-21T08:49:40;3.78;;;1.60;;
65996;SDS011;52765;52.258;21.052;2022-09-21T08:52:11;4.38;;;1.55;;
65996;SDS011;52765;52.258;21.052;2022-09-21T08:54:55;2.67;;;1.23;;
65996;SDS011;52765;52.258;21.052;2022-09-21T08:57:27;2.70;;;1.60;;
65996;SDS011;52765;52.258;21.052;2022-09-21T08:59:54;5.47;;;1.73;;
65996;SDS011;52765;52.258;21.052;2022-09-21T09:13:45;6.20;;;1.70;;
65996;SDS011;52765;52.258;21.052;2022-09-21T09:18:53;4.05;;;1.80;;
65996;SDS011;52765;52.258;21.052;2022-09-21T09:21:25;3.58;;;1.70;;
65996;SDS011;52765;52.258;21.052;2022-09-21T09:24:02;2.90;;;1.90;;
65996;SDS011;52765;52.258;21.052;2022-09-21T09:29:30;8.88;;;1.70;;
65996;SDS011;52765;52.258;21.052;2022-09-21T09:32:16;7.50;;;2.65;;
65996;SDS011;52765;52.258;21.052;2022-09-21T09:34:49;3.67;;;1.70;;
65996;SDS011;52765;52.258;21.052;2022-09-21T09:37:22;3.33;;;1.90;;
65996;SDS011;52765;52.258;21.052;2022-09-21T09:39:54;3.23;;;1.80;;
65996;SDS011;52765;52.258;21.052;2022-09-21T09:42:25;2.53;;;1.85;;
65996;SDS011;52765;52.258;21.052;2022-09-21T09:48:07;4.78;;;1.70;;
65996;SDS011;52765;52.258;21.052;2022-09-21T09:50:39;6.72;;;1.83;;
65996;SDS011;52765;52.258;21.052;2022-09-21T09:55:44;2.85;;;1.77;;
65996;SDS011;52765;52.258;21.052;2022-09-21T10:00:44;5.50;;;1.80;;
65996;SDS011;52765;52.258;21.052;2022-09-21T10:03:17;10.63;;;1.80;;
65996;SDS011;52765;52.258;21.052;2022-09-21T10:05:46;4.45;;;1.50;;
65996;SDS011;52765;52.258;21.052;2022-09-21T10:08:58;3.67;;;1.67;;
65996;SDS011;52765;52.258;21.052;2022-09-21T10:11:12;2.47;;;1.70;;
65996;SDS011;52765;52.258;21.052;2022-09-21T10:13:41;2.35;;;1.33;;
65996;SDS011;52765;52.258;21.052;2022-09-21T10:16:21;2.25;;;1.40;;
65996;SDS011;52765;52.258;21.052;2022-09-21T10:18:48;1.98;;;1.48;;
65996;SDS011;52765;52.258;21.052;2022-09-21T10:21:20;5.15;;;1.45;;
65996;SDS011;52765;52.258;21.052;2022-09-21T10:23:57;2.47;;;1.33;;
65996;SDS011;52765;52.258;21.052;2022-09-21T10:26:35;7.68;;;1.95;;
65996;SDS011;52765;52.258;21.052;2022-09-21T10:34:30;2.42;;;1.60;;
65996;SDS011;52765;52.258;21.052;2022-09-21T10:36:58;3.22;;;1.77;;
65996;SDS011;52765;52.258;21.052;2022-09-21T10:39:27;3.13;;;1.85;;
65996;SDS011;52765;52.258;21.052;2022-09-21T10:44:40;3.30;;;1.85;;
65996;SDS011;52765;52.258;21.052;2022-09-21T10:47:18;3.25;;;2.20;;
65996;SDS011;52765;52.258;21.052;2022-09-21T10:49:51;6.22;;;2.47;;
65996;SDS011;52765;52.258;21.052;2022-09-21T10:52:29;3.78;;;2.08;;
65996;SDS011;52765;52.258;21.052;2022-09-21T10:54:58;3.45;;;1.90;;
65996;SDS011;52765;52.258;21.052;2022-09-21T10:57:24;3.42;;;1.92;;
65996;SDS011;52765;52.258;21.052;2022-09-21T10:59:52;4.70;;;2.50;;
65996;SDS011;52765;52.258;21.052;2022-09-21T11:02:34;3.17;;;2.03;;
65996;SDS011;52765;52.258;21.052;2022-09-21T11:05:11;1.90;;;1.80;;
65996;SDS011;52765;52.258;21.052;2022-09-21T11:10:49;2.45;;;1.60;;
65996;SDS011;52765;52.258;21.052;2022-09-21T11:13:43;2.58;;;1.90;;
65996;SDS011;52765;52.258;21.052;2022-09-21T11:16:13;2.10;;;1.65;;
65996;SDS011;52765;52.258;21.052;2022-09-21T11:18:44;2.50;;;1.75;;
65996;SDS011;52765;52.258;21.052;2022-09-21T11:26:41;4.70;;;1.50;;
65996;SDS011;52765;52.258;21.052;2022-09-21T11:29:23;5.00;;;1.70;;
65996;SDS011;52765;52.258;21.052;2022-09-21T11:37:14;1.90;;;1.30;;
65996;SDS011;52765;52.258;21.052;2022-09-21T11:40:23;2.60;;;1.10;;
65996;SDS011;52765;52.258;21.052;2022-09-21T11:43:37;3.58;;;1.20;;
65996;SDS011;52765;52.258;21.052;2022-09-21T11:45:46;1.25;;;1.15;;
65996;SDS011;52765;52.258;21.052;2022-09-21T11:56:45;5.63;;;1.23;;
65996;SDS011;52765;52.258;21.052;2022-09-21T12:04:35;1.58;;;1.15;;
65996;SDS011;52765;52.258;21.052;2022-09-21T12:15:08;2.67;;;0.90;;
65996;SDS011;52765;52.258;21.052;2022-09-21T12:17:47;1.73;;;1.17;;
65996;SDS011;52765;52.258;21.052;2022-09-21T12:20:36;5.47;;;1.08;;
65996;SDS011;52765;52.258;21.052;2022-09-21T12:23:16;4.22;;;1.08;;
65996;SDS011;52765;52.258;21.052;2022-09-21T12:26:09;6.20;;;0.90;;
65996;SDS011;52765;52.258;21.052;2022-09-21T12:28:43;6.00;;;1.20;;
65996;SDS011;52765;52.258;21.052;2022-09-21T12:31:21;2.42;;;0.80;;
65996;SDS011;52765;52.258;21.052;2022-09-21T12:34:13;6.95;;;1.02;;
65996;SDS011;52765;52.258;21.052;2022-09-21T12:37:06;4.03;;;0.98;;
65996;SDS011;52765;52.258;21.052;2022-09-21T12:39:47;4.20;;;0.88;;
65996;SDS011;52765;52.258;21.052;2022-09-21T12:52:59;3.33;;;0.80;;
65996;SDS011;52765;52.258;21.052;2022-09-21T12:55:34;2.90;;;0.80;;
65996;SDS011;52765;52.258;21.052;2022-09-21T13:09:08;2.65;;;0.93;;
65996;SDS011;52765;52.258;21.052;2022-09-21T13:11:47;4.10;;;1.00;;
65996;SDS011;52765;52.258;21.052;2022-09-21T13:14:18;2.55;;;0.82;;
65996;SDS011;52765;52.258;21.052;2022-09-21T13:16:48;8.40;;;1.20;;
65996;SDS011;52765;52.258;21.052;2022-09-21T13:19:22;6.30;;;1.10;;
65996;SDS011;52765;52.258;21.052;2022-09-21T13:25:00;2.08;;;0.68;;
65996;SDS011;52765;52.258;21.052;2022-09-21T13:30:43;1.42;;;0.57;;
65996;SDS011;52765;52.258;21.052;2022-09-21T13:35:49;4.53;;;0.65;;
65996;SDS011;52765;52.258;21.052;2022-09-21T13:54:31;1.83;;;0.70;;
65996;SDS011;52765;52.258;21.052;2022-09-21T13:59:38;0.70;;;0.70;;
65996;SDS011;52765;52.258;21.052;2022-09-21T14:02:26;1.52;;;0.80;;
65996;SDS011;52765;52.258;21.052;2022-09-21T14:04:59;2.58;;;1.25;;
65996;SDS011;52765;52.258;21.052;2022-09-21T14:07:40;3.45;;;0.98;;
65996;SDS011;52765;52.258;21.052;2022-09-21T14:10:07;1.92;;;0.95;;
65996;SDS011;52765;52.258;21.052;2022-09-21T14:12:38;3.40;;;1.10;;
65996;SDS011;52765;52.258;21.052;2022-09-21T14:17:36;0.98;;;0.70;;
65996;SDS011;52765;52.258;21.052;2022-09-21T14:20:26;4.57;;;0.90;;
65996;SDS011;52765;52.258;21.052;2022-09-21T14:23:10;3.63;;;0.80;;
65996;SDS011;52765;52.258;21.052;2022-09-21T14:25:47;3.63;;;0.80;;
65996;SDS011;52765;52.258;21.052;2022-09-21T14:28:19;2.88;;;0.93;;
65996;SDS011;52765;52.258;21.052;2022-09-21T14:31:04;3.15;;;1.20;;
65996;SDS011;52765;52.258;21.052;2022-09-21T14:33:42;3.70;;;1.13;;
65996;SDS011;52765;52.258;21.052;2022-09-21T14:36:13;2.67;;;1.10;;
65996;SDS011;52765;52.258;21.052;2022-09-21T14:39:02;1.50;;;1.00;;
65996;SDS011;52765;52.258;21.052;2022-09-21T14:41:31;2.75;;;1.38;;
65996;SDS011;52765;52.258;21.052;2022-09-21T14:44:06;1.80;;;0.93;;
65996;SDS011;52765;52.258;21.052;2022-09-21T14:46:49;2.28;;;1.30;;
65996;SDS011;52765;52.258;21.052;2022-09-21T15:00:34;3.87;;;1.60;;
65996;SDS011;52765;52.258;21.052;2022-09-21T15:05:54;3.03;;;1.35;;
65996;SDS011;52765;52.258;21.052;2022-09-21T15:11:31;6.10;;;1.60;;
65996;SDS011;52765;52.258;21.052;2022-09-21T15:14:12;3.75;;;1.30;;
65996;SDS011;52765;52.258;21.052;2022-09-21T15:17:17;2.50;;;1.10;;
65996;SDS011;52765;52.258;21.052;2022-09-21T15:19:49;8.93;;;1.40;;
65996;SDS011;52765;52.258;21.052;2022-09-21T15:22:18;2.08;;;0.93;;
65996;SDS011;52765;52.258;21.052;2022-09-21T15:24:53;2.78;;;0.90;;
65996;SDS011;52765;52.258;21.052;2022-09-21T15:27:26;2.38;;;0.90;;
65996;SDS011;52765;52.258;21.052;2022-09-21T15:29:57;2.30;;;1.30;;
65996;SDS011;52765;52.258;21.052;2022-09-21T15:35:01;4.35;;;1.60;;
65996;SDS011;52765;52.258;21.052;2022-09-21T15:37:46;2.80;;;1.38;;
65996;SDS011;52765;52.258;21.052;2022-09-21T15:40:20;6.82;;;1.67;;
65996;SDS011;52765;52.258;21.052;2022-09-21T15:45:51;2.42;;;1.23;;
65996;SDS011;52765;52.258;21.052;2022-09-21T15:48:27;4.22;;;1.50;;
65996;SDS011;52765;52.258;21.052;2022-09-21T15:51:00;4.60;;;1.55;;
65996;SDS011;52765;52.258;21.052;2022-09-21T15:53:33;3.33;;;1.55;;
65996;SDS011;52765;52.258;21.052;2022-09-21T15:56:02;5.00;;;1.80;;
65996;SDS011;52765;52.258;21.052;2022-09-21T15:58:32;2.53;;;1.40;;
65996;SDS011;52765;52.258;21.052;2022-09-21T16:01:11;2.53;;;1.30;;
65996;SDS011;52765;52.258;21.052;2022-09-21T16:03:40;4.97;;;1.58;;
65996;SDS011;52765;52.258;21.052;2022-09-21T16:11:55;6.25;;;2.08;;
65996;SDS011;52765;52.258;21.052;2022-09-21T16:14:21;7.72;;;2.05;;
65996;SDS011;52765;52.258;21.052;2022-09-21T16:20:03;3.13;;;2.08;;
65996;SDS011;52765;52.258;21.052;2022-09-21T16:22:42;4.18;;;2.17;;
65996;SDS011;52765;52.258;21.052;2022-09-21T16:25:28;3.38;;;1.60;;
65996;SDS011;52765;52.258;21.052;2022-09-21T16:38:41;3.03;;;1.30;;
65996;SDS011;52765;52.258;21.052;2022-09-21T16:41:07;1.90;;;1.20;;
65996;SDS011;52765;52.258;21.052;2022-09-21T16:43:34;3.05;;;1.20;;
65996;SDS011;52765;52.258;21.052;2022-09-21T16:46:04;4.45;;;1.30;;
65996;SDS011;52765;52.258;21.052;2022-09-21T16:48:31;2.30;;;1.48;;
65996;SDS011;52765;52.258;21.052;2022-09-21T16:50:57;2.72;;;1.20;;
65996;SDS011;52765;52.258;21.052;2022-09-21T16:53:22;5.05;;;1.70;;
65996;SDS011;52765;52.258;21.052;2022-09-21T16:55:49;1.65;;;1.00;;
65996;SDS011;52765;52.258;21.052;2022-09-21T16:58:17;2.08;;;1.35;;
65996;SDS011;52765;52.258;21.052;2022-09-21T17:00:46;2.35;;;1.00;;
65996;SDS011;52765;52.258;21.052;2022-09-21T17:03:17;2.20;;;1.02;;
65996;SDS011;52765;52.258;21.052;2022-09-21T17:05:43;3.28;;;1.00;;
65996;SDS011;52765;52.258;21.052;2022-09-21T17:08:08;2.00;;;1.05;;
65996;SDS011;52765;52.258;21.052;2022-09-21T17:10:36;4.70;;;1.52;;
65996;SDS011;52765;52.258;21.052;2022-09-21T17:13:08;3.65;;;1.17;;
65996;SDS011;52765;52.258;21.052;2022-09-21T17:15:34;2.45;;;1.20;;
65996;SDS011;52765;52.258;21.052;2022-09-21T17:18:00;3.35;;;1.10;;
65996;SDS011;52765;52.258;21.052;2022-09-21T17:20:34;4.07;;;1.30;;
65996;SDS011;52765;52.258;21.052;2022-09-21T17:23:04;2.83;;;1.65;;
65996;SDS011;52765;52.258;21.052;2022-09-21T17:25:30;3.63;;;1.60;;
65996;SDS011;52765;52.258;21.052;2022-09-21T17:27:57;5.32;;;2.20;;
65996;SDS011;52765;52.258;21.052;2022-09-21T17:30:23;4.25;;;2.63;;
65996;SDS011;52765;52.258;21.052;2022-09-21T17:32:49;6.72;;;3.20;;
65996;SDS011;52765;52.258;21.052;2022-09-21T17:35:18;6.15;;;3.45;;
65996;SDS011;52765;52.258;21.052;2022-09-21T17:37:44;7.00;;;3.50;;
65996;SDS011;52765;52.258;21.052;2022-09-21T17:40:10;6.43;;;3.47;;
65996;SDS011;52765;52.258;21.052;2022-09-21T17:42:41;5.55;;;3.55;;
65996;SDS011;52765;52.258;21.052;2022-09-21T17:48:03;6.80;;;3.75;;
65996;SDS011;52765;52.258;21.052;2022-09-21T17:50:29;7.32;;;4.40;;
65996;SDS011;52765;52.258;21.052;2022-09-21T17:52:55;7.22;;;5.10;;
65996;SDS011;52765;52.258;21.052;2022-09-21T17:55:48;6.55;;;3.67;;
65996;SDS011;52765;52.258;21.052;2022-09-21T17:58:23;4.68;;;3.00;;
65996;SDS011;52765;52.258;21.052;2022-09-21T18:01:39;4.28;;;3.10;;
65996;SDS011;52765;52.258;21.052;2022-09-21T18:03:53;4.13;;;2.95;;
65996;SDS011;52765;52.258;21.052;2022-09-21T18:06:19;6.28;;;4.28;;
65996;SDS011;52765;52.258;21.052;2022-09-21T18:08:47;8.52;;;5.13;;
65996;SDS011;52765;52.258;21.052;2022-09-21T18:25:20;17.67;;;8.60;;
65996;SDS011;52765;52.258;21.052;2022-09-21T18:27:51;11.07;;;6.10;;
65996;SDS011;52765;52.258;21.052;2022-09-21T18:30:21;8.75;;;6.88;;
65996;SDS011;52765;52.258;21.052;2022-09-21T18:36:08;9.05;;;4.60;;
65996;SDS011;52765;52.258;21.052;2022-09-21T18:38:38;6.70;;;4.25;;
65996;SDS011;52765;52.258;21.052;2022-09-21T18:41:23;6.93;;;4.47;;
65996;SDS011;52765;52.258;21.052;2022-09-21T18:55:07;6.25;;;3.72;;
65996;SDS011;52765;52.258;21.052;2022-09-21T18:57:41;8.82;;;3.83;;